createdAt,value
2023-04-12T00:00:21.250Z,2.42
2023-04-12T00:02:54.238Z,3.05
2023-04-12T00:05:23.000Z,2.35
2023-04-12T00:07:53.212Z,2.60
2023-04-12T00:10:20.546Z,2.42
2023-04-12T00:12:47.702Z,2.55
2023-04-12T00:15:15.485Z,2.88
2023-04-12T00:17:42.530Z,2.13
2023-04-12T00:20:12.795Z,2.47
2023-04-12T00:22:43.390Z,2.60
2023-04-12T00:25:10.783Z,2.38
2023-04-12T00:27:37.750Z,2.00
2023-04-12T00:30:05.248Z,2.85
2023-04-12T00:32:32.395Z,2.10
2023-04-12T00:34:59.488Z,1.98
2023-04-12T00:37:26.467Z,2.17
2023-04-12T00:39:53.248Z,2.92
2023-04-12T00:42:20.065Z,2.30
2023-04-12T00:44:47.012Z,2.70
2023-04-12T00:47:14.710Z,2.17
2023-04-12T00:49:41.780Z,2.20
2023-04-12T00:52:11.102Z,2.05
2023-04-12T00:54:38.346Z,2.22
2023-04-12T00:57:05.419Z,2.08
2023-04-12T00:59:32.413Z,1.90
2023-04-12T01:02:00.712Z,2.13
2023-04-12T01:04:28.672Z,2.42
2023-04-12T01:07:30.028Z,2.38
2023-04-12T01:10:15.493Z,2.28
2023-04-12T01:13:19.866Z,2.35
2023-04-12T01:15:54.647Z,1.92
2023-04-12T01:18:25.141Z,2.28
2023-04-12T01:21:03.782Z,2.35
2023-04-12T01:23:52.877Z,2.00
2023-04-12T01:26:50.010Z,2.15
2023-04-12T01:29:20.691Z,2.03
2023-04-12T01:31:57.312Z,2.00
2023-04-12T01:34:26.632Z,2.10
2023-04-12T01:36:55.530Z,2.03
2023-04-12T01:39:22.622Z,2.30
2023-04-12T01:41:50.037Z,2.53
2023-04-12T01:44:17.858Z,2.00
2023-04-12T01:46:47.541Z,2.35
2023-04-12T01:49:18.810Z,2.40
2023-04-12T01:51:53.590Z,2.20
2023-04-12T01:54:29.174Z,2.30
2023-04-12T01:57:02.569Z,2.47
2023-04-12T01:59:34.895Z,2.25
2023-04-12T02:02:02.879Z,2.33
2023-04-12T02:04:30.558Z,2.72
2023-04-12T02:06:57.816Z,2.58
2023-04-12T02:09:24.698Z,2.63
2023-04-12T02:11:51.536Z,2.83
2023-04-12T02:14:19.285Z,3.15
2023-04-12T02:16:46.677Z,2.95
2023-04-12T02:19:14.082Z,2.67
2023-04-12T02:21:45.651Z,2.70
2023-04-12T02:24:13.038Z,3.13
2023-04-12T02:26:40.398Z,3.03
2023-04-12T02:29:09.123Z,2.88
2023-04-12T02:31:38.921Z,3.50
2023-04-12T02:34:06.417Z,3.40
2023-04-12T02:36:33.513Z,3.08
2023-04-12T02:39:00.321Z,3.25
2023-04-12T02:41:27.456Z,3.60
2023-04-12T02:43:54.740Z,3.78
2023-04-12T02:46:27.507Z,3.25
2023-04-12T02:48:55.039Z,3.30
2023-04-12T02:51:22.624Z,3.38
2023-04-12T02:53:49.773Z,3.33
2023-04-12T02:56:19.110Z,2.95
2023-04-12T02:58:46.421Z,3.28
2023-04-12T03:01:14.706Z,2.75
2023-04-12T03:03:41.995Z,2.80
2023-04-12T03:06:09.606Z,2.85
2023-04-12T03:08:36.577Z,3.08
2023-04-12T03:11:03.542Z,2.90
2023-04-12T03:13:30.385Z,3.20
2023-04-12T03:15:59.773Z,3.33
2023-04-12T03:18:27.022Z,2.97
2023-04-12T03:20:54.183Z,3.40
2023-04-12T03:23:21.370Z,3.83
2023-04-12T03:25:48.530Z,3.60
2023-04-12T03:28:15.848Z,4.15
2023-04-12T03:30:43.406Z,4.25
2023-04-12T03:33:10.808Z,4.60
2023-04-12T03:35:37.739Z,5.68
2023-04-12T03:38:04.696Z,5.63
2023-04-12T03:40:31.802Z,5.88
2023-04-12T03:43:00.723Z,4.50
2023-04-12T03:45:29.046Z,3.10
2023-04-12T03:47:56.087Z,3.05
2023-04-12T03:50:23.634Z,2.83
2023-04-12T03:52:50.582Z,2.85
2023-04-12T03:55:18.266Z,2.95
2023-04-12T03:57:45.103Z,4.38
2023-04-12T04:00:12.530Z,14.65
2023-04-12T04:02:39.607Z,3.20
2023-04-12T04:05:06.774Z,2.40
2023-04-12T04:07:33.715Z,1.95
2023-04-12T04:10:00.628Z,2.15
2023-04-12T04:12:28.168Z,2.08
2023-04-12T04:14:55.122Z,2.60
2023-04-12T04:17:22.096Z,2.23
2023-04-12T04:19:49.836Z,2.40
2023-04-12T04:22:17.865Z,1.90
2023-04-12T04:24:45.056Z,3.70
2023-04-12T04:27:15.777Z,8.70
2023-04-12T04:29:45.613Z,2.30
2023-04-12T04:32:12.996Z,2.40
2023-04-12T04:34:40.332Z,2.15
2023-04-12T04:37:07.476Z,2.30
2023-04-12T04:39:34.468Z,2.53
2023-04-12T04:42:01.312Z,2.10
2023-04-12T04:44:28.168Z,2.53
2023-04-12T04:46:55.077Z,2.50
2023-04-12T04:49:22.170Z,2.60
2023-04-12T04:51:49.193Z,2.60
2023-04-12T04:54:16.777Z,1.73
2023-04-12T04:56:43.886Z,2.28
2023-04-12T04:59:10.882Z,2.60
2023-04-12T05:01:38.387Z,2.55
2023-04-12T05:04:06.010Z,2.33
2023-04-12T05:06:33.520Z,2.60
2023-04-12T05:09:01.758Z,2.45
2023-04-12T05:11:28.626Z,2.85
2023-04-12T05:13:55.453Z,1.80
2023-04-12T05:16:22.338Z,2.40
2023-04-12T05:18:49.388Z,2.42
2023-04-12T05:21:16.188Z,2.15
2023-04-12T05:23:45.736Z,2.47
2023-04-12T05:26:12.989Z,2.38
2023-04-12T05:28:39.802Z,1.95
2023-04-12T05:31:07.110Z,2.30
2023-04-12T05:33:34.857Z,2.38
2023-04-12T05:36:01.926Z,2.42
2023-04-12T05:38:29.057Z,1.95
2023-04-12T05:40:55.845Z,3.17
2023-04-12T05:43:22.944Z,3.67
2023-04-12T05:45:51.496Z,2.17
2023-04-12T05:48:19.269Z,2.88
2023-04-12T05:50:53.811Z,2.90
2023-04-12T05:53:21.864Z,2.30
2023-04-12T05:55:48.717Z,2.17
2023-04-12T05:58:15.763Z,2.00
2023-04-12T06:00:42.701Z,2.50
2023-04-12T06:03:11.739Z,3.17
2023-04-12T06:05:39.525Z,2.25
2023-04-12T06:08:06.588Z,2.22
2023-04-12T06:10:33.697Z,3.10
2023-04-12T06:13:00.586Z,2.38
2023-04-12T06:15:27.443Z,3.70
2023-04-12T06:17:54.558Z,1.90
2023-04-12T06:20:21.623Z,2.63
2023-04-12T06:22:48.742Z,2.03
2023-04-12T06:25:16.582Z,2.15
2023-04-12T06:27:43.926Z,2.35
2023-04-12T06:30:11.189Z,1.90
2023-04-12T06:32:38.698Z,2.38
2023-04-12T06:35:06.201Z,2.70
2023-04-12T06:37:33.292Z,2.38
2023-04-12T06:40:00.209Z,2.58
2023-04-12T06:42:27.178Z,2.58
2023-04-12T06:44:54.246Z,2.70
2023-04-12T06:47:22.826Z,2.30
2023-04-12T06:49:54.777Z,2.58
2023-04-12T06:52:26.948Z,1.98
2023-04-12T06:54:57.063Z,2.40
2023-04-12T06:57:24.380Z,2.88
2023-04-12T06:59:51.724Z,2.30
2023-04-12T07:02:18.919Z,2.05
2023-04-12T07:04:46.286Z,2.42
2023-04-12T07:07:13.522Z,2.67
2023-04-12T07:09:40.379Z,2.30
2023-04-12T07:12:07.698Z,2.20
2023-04-12T07:14:34.866Z,2.30
2023-04-12T07:17:02.259Z,2.55
2023-04-12T07:19:31.422Z,2.30
2023-04-12T07:21:58.892Z,1.92
2023-04-12T07:24:25.928Z,2.08
2023-04-12T07:26:56.250Z,1.98
2023-04-12T07:29:23.758Z,2.80
2023-04-12T07:31:51.169Z,2.03
2023-04-12T07:34:18.089Z,1.77
2023-04-12T07:36:45.123Z,2.00
2023-04-12T07:39:12.575Z,1.90
2023-04-12T07:41:39.786Z,2.20
2023-04-12T07:44:06.898Z,2.35
2023-04-12T07:46:34.276Z,2.10
2023-04-12T07:49:01.595Z,2.05
2023-04-12T07:51:28.467Z,1.95
2023-04-12T07:53:55.717Z,1.95
2023-04-12T07:56:22.723Z,1.98
2023-04-12T07:58:49.704Z,2.03
2023-04-12T08:01:16.978Z,1.80
2023-04-12T08:03:44.043Z,1.85
2023-04-12T08:06:11.913Z,1.73
2023-04-12T08:08:38.852Z,1.95
2023-04-12T08:11:06.666Z,2.03
2023-04-12T08:13:35.623Z,1.90
2023-04-12T08:16:04.208Z,2.00
2023-04-12T08:18:56.955Z,1.90
2023-04-12T08:21:23.965Z,2.00
2023-04-12T08:23:51.709Z,2.67
2023-04-12T08:26:18.774Z,2.85
2023-04-12T08:28:45.612Z,2.20
2023-04-12T08:31:14.212Z,1.83
2023-04-12T08:33:41.229Z,1.48
2023-04-12T08:36:08.636Z,2.03
2023-04-12T08:38:45.443Z,2.10
2023-04-12T08:41:14.209Z,2.15
2023-04-12T08:43:45.794Z,2.78
2023-04-12T08:46:15.827Z,2.95
2023-04-12T08:48:46.603Z,2.55
2023-04-12T08:51:16.583Z,2.35
2023-04-12T08:53:44.117Z,3.50
2023-04-12T08:56:12.298Z,2.17
2023-04-12T08:58:46.743Z,2.58
2023-04-12T09:01:21.371Z,2.15
2023-04-12T09:03:49.061Z,3.42
2023-04-12T09:06:16.173Z,2.78
2023-04-12T09:08:52.576Z,2.92
2023-04-12T09:11:24.892Z,2.92
2023-04-12T09:13:52.290Z,2.85
2023-04-12T09:16:38.147Z,2.83
2023-04-12T09:19:05.593Z,3.00
2023-04-12T09:21:34.965Z,3.30
2023-04-12T09:24:14.910Z,2.78
2023-04-12T09:26:42.402Z,2.90
2023-04-12T09:29:28.167Z,3.45
2023-04-12T09:32:09.691Z,3.42
2023-04-12T09:34:37.282Z,2.92
2023-04-12T09:37:17.245Z,2.72
2023-04-12T09:39:44.358Z,2.53
2023-04-12T09:42:29.270Z,3.08
2023-04-12T09:45:01.211Z,2.95
2023-04-12T09:47:39.540Z,2.85
2023-04-12T09:50:08.610Z,2.85
2023-04-12T09:52:38.385Z,2.38
2023-04-12T09:55:11.592Z,2.45
2023-04-12T09:57:43.331Z,2.05
2023-04-12T10:00:14.345Z,1.83
2023-04-12T10:02:45.068Z,1.77
2023-04-12T10:05:16.285Z,1.90
2023-04-12T10:07:44.565Z,1.65
2023-04-12T10:10:13.592Z,2.53
2023-04-12T10:12:42.159Z,2.00
2023-04-12T10:15:15.347Z,1.35
2023-04-12T10:17:48.568Z,1.30
2023-04-12T10:20:17.773Z,1.20
2023-04-12T10:22:52.452Z,1.38
2023-04-12T10:25:24.445Z,1.60
2023-04-12T10:27:51.931Z,1.50
2023-04-12T10:30:19.610Z,1.35
2023-04-12T10:32:47.570Z,1.70
2023-04-12T10:35:14.676Z,1.55
2023-04-12T10:38:01.460Z,1.40
2023-04-12T10:40:29.351Z,1.48
2023-04-12T10:43:24.437Z,2.00
2023-04-12T10:45:51.582Z,1.95
2023-04-12T10:48:39.498Z,1.73
2023-04-12T10:51:23.563Z,2.17
2023-04-12T10:53:54.165Z,2.40
2023-04-12T10:56:32.545Z,1.70
2023-04-12T10:59:01.569Z,1.83
2023-04-12T11:01:29.841Z,2.15
2023-04-12T11:04:20.425Z,1.98
2023-04-12T11:06:51.101Z,1.90
2023-04-12T11:09:23.218Z,1.58
2023-04-12T11:11:50.680Z,1.55
2023-04-12T11:14:18.561Z,1.55
2023-04-12T11:17:07.532Z,1.80
2023-04-12T11:19:38.037Z,1.50
2023-04-12T11:22:06.357Z,1.70
2023-04-12T11:24:34.095Z,1.98
2023-04-12T11:27:01.556Z,1.60
2023-04-12T11:29:28.600Z,1.35
2023-04-12T11:31:56.342Z,2.20
2023-04-12T11:34:23.400Z,1.88
2023-04-12T11:36:55.000Z,1.52
2023-04-12T11:39:21.955Z,1.40
2023-04-12T11:41:49.861Z,1.40
2023-04-12T11:44:19.321Z,1.80
2023-04-12T11:46:46.584Z,1.30
2023-04-12T11:49:21.072Z,1.40
2023-04-12T11:51:49.592Z,1.65
2023-04-12T11:54:16.576Z,1.50
2023-04-12T11:56:43.449Z,1.02
2023-04-12T11:59:10.363Z,1.35
2023-04-12T12:01:37.958Z,1.30
2023-04-12T12:04:05.870Z,1.17
2023-04-12T12:06:33.651Z,1.00
2023-04-12T12:09:01.353Z,1.33
2023-04-12T12:11:28.240Z,1.55
2023-04-12T12:13:57.365Z,1.52
2023-04-12T12:16:30.273Z,0.95
2023-04-12T12:18:57.961Z,1.10
2023-04-12T12:21:27.334Z,1.58
2023-04-12T12:23:56.960Z,1.38
2023-04-12T12:26:26.401Z,1.08
2023-04-12T12:28:55.717Z,1.13
2023-04-12T12:31:30.810Z,1.20
2023-04-12T12:33:59.666Z,0.95
2023-04-12T12:36:34.426Z,1.23
2023-04-12T12:39:10.656Z,1.30
2023-04-12T12:41:39.019Z,1.70
2023-04-12T12:44:07.191Z,1.40
2023-04-12T12:49:04.211Z,1.38
2023-04-12T12:51:31.625Z,1.58
2023-04-12T12:53:58.829Z,1.20
2023-04-12T12:56:25.963Z,1.50
2023-04-12T12:58:53.008Z,0.95
2023-04-12T13:01:19.926Z,0.90
2023-04-12T13:03:46.891Z,1.10
2023-04-12T13:06:13.861Z,1.48
2023-04-12T13:08:40.963Z,1.45
2023-04-12T13:11:08.194Z,1.40
2023-04-12T13:13:35.135Z,1.27
2023-04-12T13:16:02.089Z,1.20
2023-04-12T13:18:30.167Z,1.25
2023-04-12T13:21:00.197Z,1.60
2023-04-12T13:23:27.059Z,2.22
2023-04-12T13:25:53.960Z,1.83
2023-04-12T13:28:21.464Z,1.45
2023-04-12T13:30:48.838Z,1.55
2023-04-12T13:33:19.961Z,1.20
2023-04-12T13:35:47.924Z,0.95
2023-04-12T13:38:14.887Z,1.95
2023-04-12T13:40:41.716Z,1.80
2023-04-12T13:43:08.805Z,1.50
2023-04-12T13:45:35.965Z,1.60
2023-04-12T13:48:02.927Z,1.40
2023-04-12T13:50:29.898Z,1.35
2023-04-12T13:52:56.702Z,1.48
2023-04-12T13:55:23.574Z,1.30
2023-04-12T13:57:50.527Z,1.67
2023-04-12T14:00:18.376Z,1.90
2023-04-12T14:02:45.385Z,1.20
2023-04-12T14:05:12.181Z,1.80
2023-04-12T14:07:39.127Z,1.33
2023-04-12T14:10:06.694Z,1.75
2023-04-12T14:12:33.671Z,1.85
2023-04-12T14:15:00.750Z,1.70
2023-04-12T14:17:32.647Z,1.80
2023-04-12T14:20:00.625Z,1.40
2023-04-12T14:22:28.157Z,1.95
2023-04-12T14:24:55.218Z,1.80
2023-04-12T14:27:22.572Z,2.00
2023-04-12T14:29:49.846Z,1.50
2023-04-12T14:32:17.163Z,1.20
2023-04-12T14:34:44.253Z,1.10
2023-04-12T14:37:11.330Z,0.90
2023-04-12T14:39:38.272Z,1.00
2023-04-12T14:42:06.261Z,1.10
2023-04-12T14:44:33.293Z,0.85
2023-04-12T14:47:00.166Z,0.98
2023-04-12T14:49:28.534Z,0.70
2023-04-12T14:51:57.200Z,0.90
2023-04-12T14:54:24.107Z,1.00
2023-04-12T14:56:55.123Z,1.10
2023-04-12T14:59:23.360Z,1.13
2023-04-12T15:01:52.813Z,1.00
2023-04-12T15:04:20.343Z,1.38
2023-04-12T15:06:47.730Z,1.38
2023-04-12T15:09:17.768Z,1.70
2023-04-12T15:11:47.915Z,1.50
2023-04-12T15:14:20.902Z,1.45
2023-04-12T15:16:50.892Z,1.30
2023-04-12T15:19:23.325Z,1.45
2023-04-12T15:21:51.397Z,1.40
2023-04-12T15:24:19.154Z,1.67
2023-04-12T15:26:48.374Z,1.92
2023-04-12T15:29:18.881Z,1.60
2023-04-12T15:31:46.266Z,1.10
2023-04-12T15:34:15.961Z,1.42
2023-04-12T15:36:46.049Z,1.15
2023-04-12T15:39:15.023Z,1.45
2023-04-12T15:41:42.943Z,0.95
2023-04-12T15:44:13.142Z,1.15
2023-04-12T15:46:44.549Z,1.40
2023-04-12T15:49:13.326Z,0.90
2023-04-12T15:51:40.415Z,1.40
2023-04-12T15:54:07.466Z,0.95
2023-04-12T15:56:35.428Z,0.90
2023-04-12T15:59:02.369Z,1.05
2023-04-12T16:01:29.487Z,1.00
2023-04-12T16:03:56.654Z,1.15
2023-04-12T16:06:25.406Z,1.20
2023-04-12T16:08:54.801Z,1.00
2023-04-12T16:11:24.026Z,1.33
2023-04-12T16:13:52.574Z,1.20
2023-04-12T16:16:21.420Z,1.45
2023-04-12T16:18:52.836Z,1.40
2023-04-12T16:21:21.407Z,1.80
2023-04-12T16:23:50.355Z,1.50
2023-04-12T16:26:22.118Z,1.33
2023-04-12T16:28:53.553Z,1.40
2023-04-12T16:31:21.281Z,1.35
2023-04-12T16:33:52.144Z,1.55
2023-04-12T16:36:20.019Z,1.50
2023-04-12T16:38:47.378Z,1.42
2023-04-12T16:41:14.510Z,1.20
2023-04-12T16:43:43.983Z,1.60
2023-04-12T16:46:12.215Z,1.48
2023-04-12T16:48:41.218Z,1.52
2023-04-12T16:51:08.298Z,1.38
2023-04-12T16:53:35.915Z,1.52
2023-04-12T16:56:02.915Z,1.98
2023-04-12T16:58:29.999Z,1.75
2023-04-12T17:00:57.919Z,1.52
2023-04-12T17:03:25.543Z,1.00
2023-04-12T17:05:53.154Z,1.20
2023-04-12T17:08:19.962Z,1.30
2023-04-12T17:10:47.020Z,1.52
2023-04-12T17:13:17.919Z,1.35
2023-04-12T17:15:48.154Z,1.15
2023-04-12T17:18:15.861Z,1.30
2023-04-12T17:20:43.117Z,1.13
2023-04-12T17:23:10.585Z,1.75
2023-04-12T17:25:37.997Z,1.50
2023-04-12T17:28:07.914Z,1.58
2023-04-12T17:30:35.009Z,1.10
2023-04-12T17:33:02.118Z,1.15
2023-04-12T17:35:29.529Z,1.02
2023-04-12T17:37:56.514Z,1.20
2023-04-12T17:40:23.593Z,1.30
2023-04-12T17:42:50.661Z,1.35
2023-04-12T17:45:19.432Z,1.15
2023-04-12T17:47:46.455Z,1.65
2023-04-12T17:50:14.225Z,1.48
2023-04-12T17:52:41.078Z,2.17
2023-04-12T17:55:12.903Z,2.22
2023-04-12T17:57:39.976Z,1.80
2023-04-12T18:00:11.954Z,1.83
2023-04-12T18:02:39.951Z,1.90
2023-04-12T18:05:07.782Z,1.50
2023-04-12T18:07:34.910Z,1.83
2023-04-12T18:10:03.125Z,1.65
2023-04-12T18:12:29.980Z,1.20
2023-04-12T18:14:56.807Z,1.58
2023-04-12T18:17:26.379Z,1.20
2023-04-12T18:19:55.157Z,1.80
2023-04-12T18:22:22.667Z,1.10
2023-04-12T18:24:49.527Z,1.25
2023-04-12T18:27:16.316Z,0.90
2023-04-12T18:29:43.250Z,0.75
2023-04-12T18:32:10.487Z,1.17
2023-04-12T18:34:37.625Z,0.95
2023-04-12T18:37:06.017Z,0.90
2023-04-12T18:39:35.612Z,1.17
2023-04-12T18:42:02.876Z,1.20
2023-04-12T18:44:30.270Z,1.08
2023-04-12T18:46:57.201Z,1.00
2023-04-12T18:49:24.329Z,0.90
2023-04-12T18:51:53.276Z,1.15
2023-04-12T18:54:21.231Z,0.90
2023-04-12T18:56:48.226Z,1.00
2023-04-12T18:59:18.464Z,1.00
2023-04-12T19:01:45.997Z,0.90
2023-04-12T19:04:13.243Z,0.80
2023-04-12T19:06:40.123Z,0.73
2023-04-12T19:09:08.280Z,0.90
2023-04-12T19:11:37.099Z,0.90
2023-04-12T19:14:04.559Z,1.00
2023-04-12T19:16:32.821Z,1.17
2023-04-12T19:19:00.476Z,0.85
2023-04-12T19:21:31.633Z,1.02
2023-04-12T19:23:59.011Z,1.42
2023-04-12T19:26:28.158Z,1.20
2023-04-12T19:28:58.181Z,1.30
2023-04-12T19:31:25.692Z,1.08
2023-04-12T19:33:54.019Z,1.27
2023-04-12T19:36:21.189Z,0.98
2023-04-12T19:38:48.969Z,0.93
2023-04-12T19:41:17.799Z,1.17
2023-04-12T19:43:44.737Z,1.17
2023-04-12T19:46:11.763Z,1.30
2023-04-12T19:48:38.986Z,1.17
2023-04-12T19:51:06.315Z,1.00
2023-04-12T19:53:34.020Z,0.68
2023-04-12T19:56:04.181Z,0.75
2023-04-12T19:58:32.153Z,0.80
2023-04-12T20:01:02.262Z,0.98
2023-04-12T20:03:30.135Z,1.58
2023-04-12T20:05:59.090Z,1.00
2023-04-12T20:08:27.453Z,0.98
2023-04-12T20:10:54.297Z,1.02
2023-04-12T20:13:21.100Z,0.77
2023-04-12T20:15:47.944Z,0.80
2023-04-12T20:18:15.019Z,1.23
2023-04-12T20:20:47.380Z,0.98
2023-04-12T20:23:14.353Z,1.10
2023-04-12T20:25:42.115Z,0.90
2023-04-12T20:28:09.442Z,1.10
2023-04-12T20:30:37.217Z,0.93
2023-04-12T20:33:04.358Z,1.00
2023-04-12T20:35:31.477Z,0.90
2023-04-12T20:37:58.295Z,1.10
2023-04-12T20:40:28.043Z,1.10
2023-04-12T20:42:55.452Z,0.90
2023-04-12T20:45:23.454Z,0.80
2023-04-12T20:47:51.003Z,0.70
2023-04-12T20:50:18.787Z,0.82
2023-04-12T20:52:45.745Z,1.00
2023-04-12T20:55:14.224Z,1.17
2023-04-12T20:57:41.786Z,1.00
2023-04-12T21:00:18.911Z,1.02
2023-04-12T21:02:46.467Z,1.40
2023-04-12T21:05:17.012Z,1.08
2023-04-12T21:07:46.940Z,1.13
2023-04-12T21:10:15.066Z,1.20
2023-04-12T21:12:42.880Z,0.90
2023-04-12T21:15:11.784Z,0.90
2023-04-12T21:17:39.483Z,1.05
2023-04-12T21:20:13.669Z,0.95
2023-04-12T21:22:42.166Z,0.77
2023-04-12T21:25:16.401Z,0.80
2023-04-12T21:27:45.284Z,0.88
2023-04-12T21:30:12.863Z,1.05
2023-04-12T21:32:41.421Z,0.70
2023-04-12T21:35:10.049Z,0.88
2023-04-12T21:37:39.414Z,0.77
2023-04-12T21:40:09.369Z,0.70
2023-04-12T21:42:41.001Z,0.90
2023-04-12T21:45:09.586Z,0.60
2023-04-12T21:47:38.819Z,1.00
2023-04-12T21:50:07.889Z,1.10
2023-04-12T21:52:35.559Z,0.82
2023-04-12T21:55:03.131Z,0.80
2023-04-12T21:57:34.163Z,1.25
2023-04-12T22:00:02.111Z,0.70
2023-04-12T22:02:29.459Z,1.10
2023-04-12T22:04:56.865Z,0.80
2023-04-12T22:07:23.721Z,0.60
2023-04-12T22:09:53.546Z,0.60
2023-04-12T22:12:21.324Z,0.70
2023-04-12T22:14:49.896Z,0.80
2023-04-12T22:17:21.392Z,1.08
2023-04-12T22:19:48.651Z,0.90
2023-04-12T22:22:16.194Z,0.73
2023-04-12T22:24:44.154Z,1.20
2023-04-12T22:27:11.195Z,1.05
2023-04-12T22:29:38.461Z,1.30
2023-04-12T22:32:05.367Z,1.20
2023-04-12T22:34:33.860Z,1.13
2023-04-12T22:37:02.907Z,1.10
2023-04-12T22:39:31.918Z,1.08
2023-04-12T22:41:59.597Z,1.70
2023-04-12T22:44:27.349Z,1.50
2023-04-12T22:46:56.816Z,1.80
2023-04-12T22:49:27.253Z,1.80
2023-04-12T22:51:55.317Z,1.67
2023-04-12T22:54:23.422Z,1.88
2023-04-12T22:56:50.760Z,1.63
2023-04-12T22:59:19.988Z,1.77
2023-04-12T23:01:47.446Z,1.60
2023-04-12T23:04:15.855Z,2.22
2023-04-12T23:06:43.636Z,2.17
2023-04-12T23:09:12.016Z,2.58
2023-04-12T23:11:40.747Z,2.53
2023-04-12T23:14:09.387Z,2.42
2023-04-12T23:16:42.305Z,1.45
2023-04-12T23:19:14.850Z,1.83
2023-04-12T23:21:42.420Z,1.73
2023-04-12T23:24:12.176Z,1.92
2023-04-12T23:26:39.484Z,1.85
2023-04-12T23:29:06.300Z,1.45
2023-04-12T23:31:33.506Z,1.67
2023-04-12T23:34:06.154Z,1.70
2023-04-12T23:36:34.160Z,1.40
2023-04-12T23:39:01.469Z,2.10
2023-04-12T23:41:31.620Z,3.05
2023-04-12T23:43:59.542Z,2.58
2023-04-12T23:46:26.804Z,3.13
2023-04-12T23:48:53.740Z,2.97
2023-04-12T23:51:21.211Z,3.30
2023-04-12T23:53:48.129Z,3.10
2023-04-12T23:56:14.997Z,2.85
2023-04-12T23:58:42.281Z,2.55
